sensor_id;sensor_type;location;lat;lon;timestamp;temperature;humidity
16408;DHT22;8313;49.894;8.084;2023-06-26T00:00:32;25.00;71.30
16408;DHT22;8313;49.894;8.084;2023-06-26T00:02:58;25.10;71.00
16408;DHT22;8313;49.894;8.084;2023-06-26T00:05:23;25.00;71.00
16408;DHT22;8313;49.894;8.084;2023-06-26T00:07:49;25.00;71.10
16408;DHT22;8313;49.894;8.084;2023-06-26T00:10:15;24.90;71.10
16408;DHT22;8313;49.894;8.084;2023-06-26T00:12:40;24.90;71.40
16408;DHT22;8313;49.894;8.084;2023-06-26T00:15:06;24.90;71.40
16408;DHT22;8313;49.894;8.084;2023-06-26T00:17:33;24.80;71.50
16408;DHT22;8313;49.894;8.084;2023-06-26T00:20:02;24.80;71.60
16408;DHT22;8313;49.894;8.084;2023-06-26T00:22:32;24.80;71.60
16408;DHT22;8313;49.894;8.084;2023-06-26T00:24:57;24.70;71.70
16408;DHT22;8313;49.894;8.084;2023-06-26T00:27:23;24.50;72.20
16408;DHT22;8313;49.894;8.084;2023-06-26T00:29:48;24.40;72.50
16408;DHT22;8313;49.894;8.084;2023-06-26T00:32:14;24.30;72.60
16408;DHT22;8313;49.894;8.084;2023-06-26T00:34:40;24.30;72.60
16408;DHT22;8313;49.894;8.084;2023-06-26T00:37:07;24.30;72.60
16408;DHT22;8313;49.894;8.084;2023-06-26T00:39:33;24.40;72.80
16408;DHT22;8313;49.894;8.084;2023-06-26T00:42:00;24.30;72.80
16408;DHT22;8313;49.894;8.084;2023-06-26T00:44:26;24.20;73.00
16408;DHT22;8313;49.894;8.084;2023-06-26T00:46:52;23.90;73.20
16408;DHT22;8313;49.894;8.084;2023-06-26T00:49:18;24.10;73.50
16408;DHT22;8313;49.894;8.084;2023-06-26T00:51:44;24.10;73.20
16408;DHT22;8313;49.894;8.084;2023-06-26T00:54:10;24.20;73.10
16408;DHT22;8313;49.894;8.084;2023-06-26T00:56:36;24.10;73.30
16408;DHT22;8313;49.894;8.084;2023-06-26T00:59:04;24.00;73.10
16408;DHT22;8313;49.894;8.084;2023-06-26T01:01:30;24.10;73.10
16408;DHT22;8313;49.894;8.084;2023-06-26T01:03:56;24.10;73.00
16408;DHT22;8313;49.894;8.084;2023-06-26T01:06:26;24.00;73.30
16408;DHT22;8313;49.894;8.084;2023-06-26T01:08:54;24.00;73.30
16408;DHT22;8313;49.894;8.084;2023-06-26T01:11:20;24.10;73.30
16408;DHT22;8313;49.894;8.084;2023-06-26T01:13:46;23.90;73.30
16408;DHT22;8313;49.894;8.084;2023-06-26T01:16:12;23.90;73.40
16408;DHT22;8313;49.894;8.084;2023-06-26T01:18:40;23.80;73.60
16408;DHT22;8313;49.894;8.084;2023-06-26T01:21:07;23.70;73.70
16408;DHT22;8313;49.894;8.084;2023-06-26T01:26:33;23.70;74.00
16408;DHT22;8313;49.894;8.084;2023-06-26T01:29:02;23.80;73.80
16408;DHT22;8313;49.894;8.084;2023-06-26T01:31:30;23.80;73.80
16408;DHT22;8313;49.894;8.084;2023-06-26T01:33:58;23.60;74.30
16408;DHT22;8313;49.894;8.084;2023-06-26T01:36:25;23.60;74.30
16408;DHT22;8313;49.894;8.084;2023-06-26T01:38:50;23.70;74.30
16408;DHT22;8313;49.894;8.084;2023-06-26T01:41:18;23.70;74.10
16408;DHT22;8313;49.894;8.084;2023-06-26T01:44:06;23.60;74.10
16408;DHT22;8313;49.894;8.084;2023-06-26T01:54:38;23.30;74.70
16408;DHT22;8313;49.894;8.084;2023-06-26T01:57:05;23.40;74.90
16408;DHT22;8313;49.894;8.084;2023-06-26T01:59:33;23.40;74.90
16408;DHT22;8313;49.894;8.084;2023-06-26T02:02:01;23.30;74.90
16408;DHT22;8313;49.894;8.084;2023-06-26T02:04:27;23.30;75.00
16408;DHT22;8313;49.894;8.084;2023-06-26T02:06:52;23.30;75.10
16408;DHT22;8313;49.894;8.084;2023-06-26T02:09:20;23.20;74.80
16408;DHT22;8313;49.894;8.084;2023-06-26T02:11:45;23.10;75.50
16408;DHT22;8313;49.894;8.084;2023-06-26T02:14:11;23.10;75.30
16408;DHT22;8313;49.894;8.084;2023-06-26T02:16:38;23.10;76.00
16408;DHT22;8313;49.894;8.084;2023-06-26T02:19:05;23.00;75.20
16408;DHT22;8313;49.894;8.084;2023-06-26T02:21:31;23.10;75.00
16408;DHT22;8313;49.894;8.084;2023-06-26T02:24:00;23.10;75.00
16408;DHT22;8313;49.894;8.084;2023-06-26T02:26:25;23.10;75.20
16408;DHT22;8313;49.894;8.084;2023-06-26T02:28:51;22.90;75.30
16408;DHT22;8313;49.894;8.084;2023-06-26T02:31:16;22.80;75.50
16408;DHT22;8313;49.894;8.084;2023-06-26T02:33:42;22.80;75.90
16408;DHT22;8313;49.894;8.084;2023-06-26T02:36:10;22.90;75.50
16408;DHT22;8313;49.894;8.084;2023-06-26T02:38:36;22.90;75.20
16408;DHT22;8313;49.894;8.084;2023-06-26T02:41:02;22.90;75.00
16408;DHT22;8313;49.894;8.084;2023-06-26T02:43:28;22.90;75.50
16408;DHT22;8313;49.894;8.084;2023-06-26T02:45:55;22.90;75.40
16408;DHT22;8313;49.894;8.084;2023-06-26T02:48:20;22.90;75.40
16408;DHT22;8313;49.894;8.084;2023-06-26T02:50:46;22.90;75.30
16408;DHT22;8313;49.894;8.084;2023-06-26T02:53:13;22.90;75.50
16408;DHT22;8313;49.894;8.084;2023-06-26T02:55:42;22.80;75.60
16408;DHT22;8313;49.894;8.084;2023-06-26T02:58:08;22.60;75.50
16408;DHT22;8313;49.894;8.084;2023-06-26T03:00:35;22.70;76.10
16408;DHT22;8313;49.894;8.084;2023-06-26T03:03:04;22.70;76.10
16408;DHT22;8313;49.894;8.084;2023-06-26T03:05:30;22.60;76.00
16408;DHT22;8313;49.894;8.084;2023-06-26T03:07:56;22.60;76.20
16408;DHT22;8313;49.894;8.084;2023-06-26T03:10:22;22.50;76.10
16408;DHT22;8313;49.894;8.084;2023-06-26T03:12:48;22.50;76.30
16408;DHT22;8313;49.894;8.084;2023-06-26T03:15:15;22.40;76.30
16408;DHT22;8313;49.894;8.084;2023-06-26T03:17:41;22.40;76.50
16408;DHT22;8313;49.894;8.084;2023-06-26T03:20:11;22.40;76.40
16408;DHT22;8313;49.894;8.084;2023-06-26T03:22:48;22.40;76.70
16408;DHT22;8313;49.894;8.084;2023-06-26T03:25:15;22.40;76.60
16408;DHT22;8313;49.894;8.084;2023-06-26T03:27:41;22.40;76.50
16408;DHT22;8313;49.894;8.084;2023-06-26T03:30:07;22.40;76.80
16408;DHT22;8313;49.894;8.084;2023-06-26T03:32:36;22.30;76.70
16408;DHT22;8313;49.894;8.084;2023-06-26T03:35:02;22.30;77.60
16408;DHT22;8313;49.894;8.084;2023-06-26T03:37:29;22.30;77.10
16408;DHT22;8313;49.894;8.084;2023-06-26T03:39:57;22.20;76.90
16408;DHT22;8313;49.894;8.084;2023-06-26T03:42:23;22.30;76.90
16408;DHT22;8313;49.894;8.084;2023-06-26T03:44:49;22.30;76.60
16408;DHT22;8313;49.894;8.084;2023-06-26T03:47:17;22.20;76.70
16408;DHT22;8313;49.894;8.084;2023-06-26T03:49:42;22.20;76.80
16408;DHT22;8313;49.894;8.084;2023-06-26T03:52:09;22.20;76.90
16408;DHT22;8313;49.894;8.084;2023-06-26T03:54:34;22.10;77.00
16408;DHT22;8313;49.894;8.084;2023-06-26T03:57:01;22.10;77.50
16408;DHT22;8313;49.894;8.084;2023-06-26T03:59:26;21.90;77.80
16408;DHT22;8313;49.894;8.084;2023-06-26T04:01:52;21.80;77.80
16408;DHT22;8313;49.894;8.084;2023-06-26T04:04:19;21.90;78.00
16408;DHT22;8313;49.894;8.084;2023-06-26T04:06:45;22.00;78.20
16408;DHT22;8313;49.894;8.084;2023-06-26T04:09:11;22.00;77.90
16408;DHT22;8313;49.894;8.084;2023-06-26T04:11:37;22.10;77.70
16408;DHT22;8313;49.894;8.084;2023-06-26T04:14:03;22.00;77.40
16408;DHT22;8313;49.894;8.084;2023-06-26T04:16:29;22.00;78.00
16408;DHT22;8313;49.894;8.084;2023-06-26T04:18:54;22.00;77.80
16408;DHT22;8313;49.894;8.084;2023-06-26T04:21:22;22.00;78.00
16408;DHT22;8313;49.894;8.084;2023-06-26T04:23:50;22.00;78.50
16408;DHT22;8313;49.894;8.084;2023-06-26T04:26:16;22.00;78.20
16408;DHT22;8313;49.894;8.084;2023-06-26T04:28:42;22.10;78.20
16408;DHT22;8313;49.894;8.084;2023-06-26T04:31:08;22.10;78.20
16408;DHT22;8313;49.894;8.084;2023-06-26T04:33:35;22.20;77.80
16408;DHT22;8313;49.894;8.084;2023-06-26T04:36:05;22.20;78.10
16408;DHT22;8313;49.894;8.084;2023-06-26T04:38:32;22.20;78.30
16408;DHT22;8313;49.894;8.084;2023-06-26T04:40:57;22.20;78.70
16408;DHT22;8313;49.894;8.084;2023-06-26T04:43:23;22.20;78.70
16408;DHT22;8313;49.894;8.084;2023-06-26T04:45:49;22.30;78.80
16408;DHT22;8313;49.894;8.084;2023-06-26T04:48:14;22.20;79.00
16408;DHT22;8313;49.894;8.084;2023-06-26T04:50:40;22.30;79.20
16408;DHT22;8313;49.894;8.084;2023-06-26T04:53:06;22.30;79.30
16408;DHT22;8313;49.894;8.084;2023-06-26T04:55:31;22.30;79.50
16408;DHT22;8313;49.894;8.084;2023-06-26T04:57:57;22.30;79.10
16408;DHT22;8313;49.894;8.084;2023-06-26T05:00:23;22.40;79.50
16408;DHT22;8313;49.894;8.084;2023-06-26T05:02:50;22.30;79.90
16408;DHT22;8313;49.894;8.084;2023-06-26T05:05:26;22.30;80.10
16408;DHT22;8313;49.894;8.084;2023-06-26T05:07:53;22.40;80.70
16408;DHT22;8313;49.894;8.084;2023-06-26T05:10:19;22.40;80.00
16408;DHT22;8313;49.894;8.084;2023-06-26T05:12:44;22.40;80.10
16408;DHT22;8313;49.894;8.084;2023-06-26T05:15:10;22.50;80.80
16408;DHT22;8313;49.894;8.084;2023-06-26T05:17:36;22.50;80.00
16408;DHT22;8313;49.894;8.084;2023-06-26T05:20:02;22.50;80.30
16408;DHT22;8313;49.894;8.084;2023-06-26T05:22:29;22.50;80.30
16408;DHT22;8313;49.894;8.084;2023-06-26T05:24:55;22.60;80.20
16408;DHT22;8313;49.894;8.084;2023-06-26T05:27:24;22.60;81.70
16408;DHT22;8313;49.894;8.084;2023-06-26T05:29:50;22.60;81.80
16408;DHT22;8313;49.894;8.084;2023-06-26T05:32:17;22.60;82.20
16408;DHT22;8313;49.894;8.084;2023-06-26T05:34:47;22.70;83.70
16408;DHT22;8313;49.894;8.084;2023-06-26T05:37:20;22.70;83.20
16408;DHT22;8313;49.894;8.084;2023-06-26T05:39:47;22.70;83.90
16408;DHT22;8313;49.894;8.084;2023-06-26T05:42:13;22.80;85.00
16408;DHT22;8313;49.894;8.084;2023-06-26T05:44:39;22.80;84.40
16408;DHT22;8313;49.894;8.084;2023-06-26T05:47:05;22.90;85.00
16408;DHT22;8313;49.894;8.084;2023-06-26T05:49:31;22.80;83.00
16408;DHT22;8313;49.894;8.084;2023-06-26T05:51:56;22.90;84.10
16408;DHT22;8313;49.894;8.084;2023-06-26T05:54:23;23.00;85.40
16408;DHT22;8313;49.894;8.084;2023-06-26T05:56:53;23.00;84.00
16408;DHT22;8313;49.894;8.084;2023-06-26T05:59:21;23.00;84.20
16408;DHT22;8313;49.894;8.084;2023-06-26T06:01:47;23.00;84.40
16408;DHT22;8313;49.894;8.084;2023-06-26T06:04:13;23.10;83.60
16408;DHT22;8313;49.894;8.084;2023-06-26T06:06:39;23.10;84.00
16408;DHT22;8313;49.894;8.084;2023-06-26T06:09:04;23.10;83.60
16408;DHT22;8313;49.894;8.084;2023-06-26T06:11:30;23.10;83.50
16408;DHT22;8313;49.894;8.084;2023-06-26T06:13:56;23.20;84.90
16408;DHT22;8313;49.894;8.084;2023-06-26T06:16:21;23.20;84.40
16408;DHT22;8313;49.894;8.084;2023-06-26T06:18:47;23.20;83.50
16408;DHT22;8313;49.894;8.084;2023-06-26T06:21:12;23.30;85.00
16408;DHT22;8313;49.894;8.084;2023-06-26T06:23:38;23.40;85.80
16408;DHT22;8313;49.894;8.084;2023-06-26T06:26:04;23.60;86.90
16408;DHT22;8313;49.894;8.084;2023-06-26T06:28:29;23.70;87.10
16408;DHT22;8313;49.894;8.084;2023-06-26T06:30:55;23.80;87.30
16408;DHT22;8313;49.894;8.084;2023-06-26T06:33:21;23.90;87.40
16408;DHT22;8313;49.894;8.084;2023-06-26T06:35:46;24.00;87.70
16408;DHT22;8313;49.894;8.084;2023-06-26T06:38:12;24.10;88.10
16408;DHT22;8313;49.894;8.084;2023-06-26T06:40:38;24.10;86.80
16408;DHT22;8313;49.894;8.084;2023-06-26T06:43:03;24.10;87.30
16408;DHT22;8313;49.894;8.084;2023-06-26T06:45:29;24.10;86.80
16408;DHT22;8313;49.894;8.084;2023-06-26T06:47:55;24.10;86.60
16408;DHT22;8313;49.894;8.084;2023-06-26T06:50:20;24.10;86.40
16408;DHT22;8313;49.894;8.084;2023-06-26T06:52:49;23.90;86.10
16408;DHT22;8313;49.894;8.084;2023-06-26T06:55:15;24.00;86.90
16408;DHT22;8313;49.894;8.084;2023-06-26T06:57:40;24.10;86.50
16408;DHT22;8313;49.894;8.084;2023-06-26T07:00:11;24.10;85.70
16408;DHT22;8313;49.894;8.084;2023-06-26T07:02:38;24.30;85.80
16408;DHT22;8313;49.894;8.084;2023-06-26T07:05:05;24.40;84.40
16408;DHT22;8313;49.894;8.084;2023-06-26T07:07:32;24.40;83.80
16408;DHT22;8313;49.894;8.084;2023-06-26T07:10:00;24.40;83.90
16408;DHT22;8313;49.894;8.084;2023-06-26T07:12:25;24.40;83.10
16408;DHT22;8313;49.894;8.084;2023-06-26T07:14:51;24.50;82.60
16408;DHT22;8313;49.894;8.084;2023-06-26T07:17:17;24.60;82.70
16408;DHT22;8313;49.894;8.084;2023-06-26T07:19:42;24.80;82.70
16408;DHT22;8313;49.894;8.084;2023-06-26T07:22:08;24.90;82.70
16408;DHT22;8313;49.894;8.084;2023-06-26T07:24:34;24.90;82.30
16408;DHT22;8313;49.894;8.084;2023-06-26T07:26:59;25.00;82.50
16408;DHT22;8313;49.894;8.084;2023-06-26T07:29:26;25.00;82.20
16408;DHT22;8313;49.894;8.084;2023-06-26T07:31:51;25.10;82.80
16408;DHT22;8313;49.894;8.084;2023-06-26T07:34:17;25.30;82.60
16408;DHT22;8313;49.894;8.084;2023-06-26T07:36:43;25.40;81.70
16408;DHT22;8313;49.894;8.084;2023-06-26T07:39:08;25.50;80.90
16408;DHT22;8313;49.894;8.084;2023-06-26T07:41:34;25.60;80.80
16408;DHT22;8313;49.894;8.084;2023-06-26T07:44:00;25.60;80.80
16408;DHT22;8313;49.894;8.084;2023-06-26T07:46:25;25.70;80.90
16408;DHT22;8313;49.894;8.084;2023-06-26T07:48:51;25.80;81.20
16408;DHT22;8313;49.894;8.084;2023-06-26T07:51:17;25.80;81.20
16408;DHT22;8313;49.894;8.084;2023-06-26T07:53:43;25.80;81.40
16408;DHT22;8313;49.894;8.084;2023-06-26T07:56:08;25.90;81.50
16408;DHT22;8313;49.894;8.084;2023-06-26T07:58:34;26.00;81.60
16408;DHT22;8313;49.894;8.084;2023-06-26T08:01:00;26.00;82.10
16408;DHT22;8313;49.894;8.084;2023-06-26T08:03:25;26.10;81.70
16408;DHT22;8313;49.894;8.084;2023-06-26T08:05:51;26.20;81.90
16408;DHT22;8313;49.894;8.084;2023-06-26T08:08:16;26.30;81.80
16408;DHT22;8313;49.894;8.084;2023-06-26T08:10:42;26.50;81.90
16408;DHT22;8313;49.894;8.084;2023-06-26T08:13:08;26.50;81.40
16408;DHT22;8313;49.894;8.084;2023-06-26T08:15:33;26.60;81.70
16408;DHT22;8313;49.894;8.084;2023-06-26T08:17:59;26.70;81.90
16408;DHT22;8313;49.894;8.084;2023-06-26T08:20:25;26.70;81.50
16408;DHT22;8313;49.894;8.084;2023-06-26T08:22:51;26.90;81.10
16408;DHT22;8313;49.894;8.084;2023-06-26T08:25:18;26.90;80.90
16408;DHT22;8313;49.894;8.084;2023-06-26T08:27:43;26.90;80.90
16408;DHT22;8313;49.894;8.084;2023-06-26T08:30:09;26.90;81.00
16408;DHT22;8313;49.894;8.084;2023-06-26T08:32:35;27.00;80.90
16408;DHT22;8313;49.894;8.084;2023-06-26T08:35:01;27.00;81.20
16408;DHT22;8313;49.894;8.084;2023-06-26T08:37:26;27.10;81.00
16408;DHT22;8313;49.894;8.084;2023-06-26T08:39:52;27.20;81.30
16408;DHT22;8313;49.894;8.084;2023-06-26T08:42:17;27.40;81.50
16408;DHT22;8313;49.894;8.084;2023-06-26T08:44:43;27.50;81.20
16408;DHT22;8313;49.894;8.084;2023-06-26T08:47:11;27.50;81.00
16408;DHT22;8313;49.894;8.084;2023-06-26T08:49:47;27.60;81.10
16408;DHT22;8313;49.894;8.084;2023-06-26T08:52:36;27.70;80.00
16408;DHT22;8313;49.894;8.084;2023-06-26T08:55:07;27.80;80.90
16408;DHT22;8313;49.894;8.084;2023-06-26T08:57:35;27.70;80.60
16408;DHT22;8313;49.894;8.084;2023-06-26T09:00:00;27.80;80.60
16408;DHT22;8313;49.894;8.084;2023-06-26T09:02:26;27.90;80.40
16408;DHT22;8313;49.894;8.084;2023-06-26T09:04:52;27.90;79.90
16408;DHT22;8313;49.894;8.084;2023-06-26T09:07:18;27.90;80.30
16408;DHT22;8313;49.894;8.084;2023-06-26T09:09:44;28.30;80.70
16408;DHT22;8313;49.894;8.084;2023-06-26T09:12:10;28.40;79.70
16408;DHT22;8313;49.894;8.084;2023-06-26T09:14:37;28.50;79.40
16408;DHT22;8313;49.894;8.084;2023-06-26T09:17:03;28.50;79.90
16408;DHT22;8313;49.894;8.084;2023-06-26T09:19:29;28.50;79.50
16408;DHT22;8313;49.894;8.084;2023-06-26T09:21:55;28.80;78.50
16408;DHT22;8313;49.894;8.084;2023-06-26T09:24:22;28.80;79.00
16408;DHT22;8313;49.894;8.084;2023-06-26T09:26:50;28.80;78.50
16408;DHT22;8313;49.894;8.084;2023-06-26T09:29:17;29.00;77.60
16408;DHT22;8313;49.894;8.084;2023-06-26T09:31:44;28.90;77.00
16408;DHT22;8313;49.894;8.084;2023-06-26T09:34:10;28.90;77.20
16408;DHT22;8313;49.894;8.084;2023-06-26T09:36:36;28.80;77.30
16408;DHT22;8313;49.894;8.084;2023-06-26T09:39:03;28.90;77.30
16408;DHT22;8313;49.894;8.084;2023-06-26T09:41:30;28.90;77.00
16408;DHT22;8313;49.894;8.084;2023-06-26T09:44:01;29.00;77.00
16408;DHT22;8313;49.894;8.084;2023-06-26T09:46:29;28.90;77.50
16408;DHT22;8313;49.894;8.084;2023-06-26T09:49:08;29.10;78.00
16408;DHT22;8313;49.894;8.084;2023-06-26T09:51:37;29.20;77.00
16408;DHT22;8313;49.894;8.084;2023-06-26T09:54:05;29.40;76.20
16408;DHT22;8313;49.894;8.084;2023-06-26T09:56:31;29.20;76.80
16408;DHT22;8313;49.894;8.084;2023-06-26T09:58:59;28.90;76.90
16408;DHT22;8313;49.894;8.084;2023-06-26T10:01:27;29.30;77.10
16408;DHT22;8313;49.894;8.084;2023-06-26T10:03:54;29.50;76.70
16408;DHT22;8313;49.894;8.084;2023-06-26T10:06:45;29.60;76.10
16408;DHT22;8313;49.894;8.084;2023-06-26T10:09:13;29.80;75.60
16408;DHT22;8313;49.894;8.084;2023-06-26T10:11:55;29.60;75.30
16408;DHT22;8313;49.894;8.084;2023-06-26T10:14:22;29.70;76.10
16408;DHT22;8313;49.894;8.084;2023-06-26T10:16:51;29.90;75.60
16408;DHT22;8313;49.894;8.084;2023-06-26T10:19:19;29.70;75.30
16408;DHT22;8313;49.894;8.084;2023-06-26T10:21:54;29.60;76.30
16408;DHT22;8313;49.894;8.084;2023-06-26T10:24:22;29.90;75.70
16408;DHT22;8313;49.894;8.084;2023-06-26T10:26:50;29.90;74.80
16408;DHT22;8313;49.894;8.084;2023-06-26T10:29:18;29.80;75.60
16408;DHT22;8313;49.894;8.084;2023-06-26T10:31:52;30.30;73.90
16408;DHT22;8313;49.894;8.084;2023-06-26T10:34:18;30.30;74.20
16408;DHT22;8313;49.894;8.084;2023-06-26T10:36:44;30.60;72.80
16408;DHT22;8313;49.894;8.084;2023-06-26T10:39:10;30.80;72.30
16408;DHT22;8313;49.894;8.084;2023-06-26T10:41:40;30.60;72.10
16408;DHT22;8313;49.894;8.084;2023-06-26T10:44:09;30.70;70.80
16408;DHT22;8313;49.894;8.084;2023-06-26T10:46:55;30.80;71.40
16408;DHT22;8313;49.894;8.084;2023-06-26T10:49:28;30.90;71.90
16408;DHT22;8313;49.894;8.084;2023-06-26T10:51:55;30.90;71.10
16408;DHT22;8313;49.894;8.084;2023-06-26T10:54:28;30.60;70.90
16408;DHT22;8313;49.894;8.084;2023-06-26T10:56:55;30.70;71.00
16408;DHT22;8313;49.894;8.084;2023-06-26T10:59:25;30.70;70.20
16408;DHT22;8313;49.894;8.084;2023-06-26T11:02:02;31.20;68.20
16408;DHT22;8313;49.894;8.084;2023-06-26T11:04:48;31.20;67.90
16408;DHT22;8313;49.894;8.084;2023-06-26T11:07:25;30.90;68.00
16408;DHT22;8313;49.894;8.084;2023-06-26T11:09:58;31.10;68.60
16408;DHT22;8313;49.894;8.084;2023-06-26T11:12:42;31.30;67.30
16408;DHT22;8313;49.894;8.084;2023-06-26T11:15:14;30.90;65.70
16408;DHT22;8313;49.894;8.084;2023-06-26T11:17:43;31.10;65.90
16408;DHT22;8313;49.894;8.084;2023-06-26T11:20:14;31.30;64.30
16408;DHT22;8313;49.894;8.084;2023-06-26T11:22:42;31.40;64.30
16408;DHT22;8313;49.894;8.084;2023-06-26T11:25:09;31.60;63.40
16408;DHT22;8313;49.894;8.084;2023-06-26T11:30:08;32.00;62.40
16408;DHT22;8313;49.894;8.084;2023-06-26T11:32:36;31.90;64.10
16408;DHT22;8313;49.894;8.084;2023-06-26T11:35:01;31.50;64.10
16408;DHT22;8313;49.894;8.084;2023-06-26T11:37:27;31.70;63.90
16408;DHT22;8313;49.894;8.084;2023-06-26T11:39:53;31.20;63.50
16408;DHT22;8313;49.894;8.084;2023-06-26T11:42:20;31.40;64.20
16408;DHT22;8313;49.894;8.084;2023-06-26T11:44:46;31.90;62.70
16408;DHT22;8313;49.894;8.084;2023-06-26T11:47:14;32.20;60.50
16408;DHT22;8313;49.894;8.084;2023-06-26T11:49:43;32.10;59.90
16408;DHT22;8313;49.894;8.084;2023-06-26T11:52:08;32.30;59.90
16408;DHT22;8313;49.894;8.084;2023-06-26T11:54:34;32.20;59.80
16408;DHT22;8313;49.894;8.084;2023-06-26T11:57:00;32.10;59.60
16408;DHT22;8313;49.894;8.084;2023-06-26T11:59:39;31.90;59.50
16408;DHT22;8313;49.894;8.084;2023-06-26T12:02:10;32.10;59.50
16408;DHT22;8313;49.894;8.084;2023-06-26T12:04:37;32.30;58.50
16408;DHT22;8313;49.894;8.084;2023-06-26T12:07:06;32.40;57.90
16408;DHT22;8313;49.894;8.084;2023-06-26T12:09:44;32.30;57.50
16408;DHT22;8313;49.894;8.084;2023-06-26T12:12:11;32.30;57.40
16408;DHT22;8313;49.894;8.084;2023-06-26T12:14:38;32.10;57.00
16408;DHT22;8313;49.894;8.084;2023-06-26T12:17:09;31.90;56.70
16408;DHT22;8313;49.894;8.084;2023-06-26T12:19:46;32.30;56.30
16408;DHT22;8313;49.894;8.084;2023-06-26T12:22:16;32.20;55.60
16408;DHT22;8313;49.894;8.084;2023-06-26T12:24:43;31.60;55.30
16408;DHT22;8313;49.894;8.084;2023-06-26T12:27:11;31.20;55.20
16408;DHT22;8313;49.894;8.084;2023-06-26T12:29:39;31.30;55.10
16408;DHT22;8313;49.894;8.084;2023-06-26T12:32:08;31.70;54.00
16408;DHT22;8313;49.894;8.084;2023-06-26T12:34:35;31.80;52.90
16408;DHT22;8313;49.894;8.084;2023-06-26T12:37:08;31.60;53.20
16408;DHT22;8313;49.894;8.084;2023-06-26T12:42:18;31.50;54.40
16408;DHT22;8313;49.894;8.084;2023-06-26T12:44:44;32.00;51.90
16408;DHT22;8313;49.894;8.084;2023-06-26T12:47:10;31.50;55.70
16408;DHT22;8313;49.894;8.084;2023-06-26T12:49:42;31.30;56.00
16408;DHT22;8313;49.894;8.084;2023-06-26T12:52:10;31.50;55.60
16408;DHT22;8313;49.894;8.084;2023-06-26T12:54:38;31.10;55.60
16408;DHT22;8313;49.894;8.084;2023-06-26T12:57:04;31.60;56.10
16408;DHT22;8313;49.894;8.084;2023-06-26T12:59:30;31.80;55.90
16408;DHT22;8313;49.894;8.084;2023-06-26T13:01:57;31.20;55.80
16408;DHT22;8313;49.894;8.084;2023-06-26T13:04:23;31.50;55.70
16408;DHT22;8313;49.894;8.084;2023-06-26T13:06:49;31.60;56.30
16408;DHT22;8313;49.894;8.084;2023-06-26T13:09:15;31.60;55.90
16408;DHT22;8313;49.894;8.084;2023-06-26T13:11:41;31.80;55.30
16408;DHT22;8313;49.894;8.084;2023-06-26T13:14:07;31.90;55.00
16408;DHT22;8313;49.894;8.084;2023-06-26T13:16:33;32.10;53.10
16408;DHT22;8313;49.894;8.084;2023-06-26T13:18:59;32.00;52.20
16408;DHT22;8313;49.894;8.084;2023-06-26T13:21:26;31.80;52.30
16408;DHT22;8313;49.894;8.084;2023-06-26T13:23:52;31.80;52.80
16408;DHT22;8313;49.894;8.084;2023-06-26T13:26:19;31.90;52.50
16408;DHT22;8313;49.894;8.084;2023-06-26T13:28:45;31.80;52.60
16408;DHT22;8313;49.894;8.084;2023-06-26T13:31:10;31.80;51.70
16408;DHT22;8313;49.894;8.084;2023-06-26T13:33:36;31.50;52.60
16408;DHT22;8313;49.894;8.084;2023-06-26T13:36:02;31.50;52.50
16408;DHT22;8313;49.894;8.084;2023-06-26T13:38:32;31.60;52.30
16408;DHT22;8313;49.894;8.084;2023-06-26T13:40:58;31.60;52.10
16408;DHT22;8313;49.894;8.084;2023-06-26T13:43:26;31.20;52.00
16408;DHT22;8313;49.894;8.084;2023-06-26T13:45:53;31.30;50.10
16408;DHT22;8313;49.894;8.084;2023-06-26T13:48:19;31.30;50.20
16408;DHT22;8313;49.894;8.084;2023-06-26T13:50:45;31.30;49.60
16408;DHT22;8313;49.894;8.084;2023-06-26T13:53:11;31.30;49.70
16408;DHT22;8313;49.894;8.084;2023-06-26T13:55:37;31.30;50.00
16408;DHT22;8313;49.894;8.084;2023-06-26T13:58:04;31.10;50.10
16408;DHT22;8313;49.894;8.084;2023-06-26T14:00:32;31.30;50.40
16408;DHT22;8313;49.894;8.084;2023-06-26T14:02:59;31.50;50.90
16408;DHT22;8313;49.894;8.084;2023-06-26T14:05:25;31.50;50.90
16408;DHT22;8313;49.894;8.084;2023-06-26T14:07:51;31.30;51.50
16408;DHT22;8313;49.894;8.084;2023-06-26T14:10:17;31.30;52.00
16408;DHT22;8313;49.894;8.084;2023-06-26T14:12:42;31.60;51.70
16408;DHT22;8313;49.894;8.084;2023-06-26T14:15:08;31.60;51.70
16408;DHT22;8313;49.894;8.084;2023-06-26T14:17:34;31.70;51.40
16408;DHT22;8313;49.894;8.084;2023-06-26T14:20:00;31.80;51.70
16408;DHT22;8313;49.894;8.084;2023-06-26T14:22:25;31.90;52.20
16408;DHT22;8313;49.894;8.084;2023-06-26T14:24:51;31.70;52.20
16408;DHT22;8313;49.894;8.084;2023-06-26T14:27:17;31.70;51.80
16408;DHT22;8313;49.894;8.084;2023-06-26T14:29:42;31.60;51.90
16408;DHT22;8313;49.894;8.084;2023-06-26T14:32:08;31.60;52.00
16408;DHT22;8313;49.894;8.084;2023-06-26T14:34:34;31.60;52.00
16408;DHT22;8313;49.894;8.084;2023-06-26T14:36:59;31.50;51.70
16408;DHT22;8313;49.894;8.084;2023-06-26T14:39:25;31.40;51.20
16408;DHT22;8313;49.894;8.084;2023-06-26T14:41:51;31.40;50.40
16408;DHT22;8313;49.894;8.084;2023-06-26T14:44:16;31.40;50.00
16408;DHT22;8313;49.894;8.084;2023-06-26T14:46:42;31.40;50.40
16408;DHT22;8313;49.894;8.084;2023-06-26T14:49:08;31.50;50.80
16408;DHT22;8313;49.894;8.084;2023-06-26T14:51:34;31.50;50.70
16408;DHT22;8313;49.894;8.084;2023-06-26T14:54:00;31.50;50.80
16408;DHT22;8313;49.894;8.084;2023-06-26T14:56:26;31.30;50.80
16408;DHT22;8313;49.894;8.084;2023-06-26T14:58:52;31.20;51.10
16408;DHT22;8313;49.894;8.084;2023-06-26T15:01:19;31.30;51.10
16408;DHT22;8313;49.894;8.084;2023-06-26T15:03:47;31.40;50.90
16408;DHT22;8313;49.894;8.084;2023-06-26T15:06:13;31.40;49.80
16408;DHT22;8313;49.894;8.084;2023-06-26T15:08:39;31.40;49.00
16408;DHT22;8313;49.894;8.084;2023-06-26T15:11:06;31.40;49.20
16408;DHT22;8313;49.894;8.084;2023-06-26T15:13:31;31.40;49.60
16408;DHT22;8313;49.894;8.084;2023-06-26T15:15:57;31.40;49.50
16408;DHT22;8313;49.894;8.084;2023-06-26T15:18:23;31.30;49.40
16408;DHT22;8313;49.894;8.084;2023-06-26T15:20:48;31.20;49.90
16408;DHT22;8313;49.894;8.084;2023-06-26T15:23:14;31.30;49.10
16408;DHT22;8313;49.894;8.084;2023-06-26T15:25:40;31.10;49.20
16408;DHT22;8313;49.894;8.084;2023-06-26T15:28:06;30.80;50.00
16408;DHT22;8313;49.894;8.084;2023-06-26T15:30:32;30.80;50.00
16408;DHT22;8313;49.894;8.084;2023-06-26T15:32:58;30.60;50.50
16408;DHT22;8313;49.894;8.084;2023-06-26T15:35:24;30.30;51.80
16408;DHT22;8313;49.894;8.084;2023-06-26T15:37:50;30.30;52.70
16408;DHT22;8313;49.894;8.084;2023-06-26T15:40:16;30.10;53.80
16408;DHT22;8313;49.894;8.084;2023-06-26T15:42:49;30.10;54.10
16408;DHT22;8313;49.894;8.084;2023-06-26T15:45:15;30.10;54.40
16408;DHT22;8313;49.894;8.084;2023-06-26T15:47:43;29.80;54.60
16408;DHT22;8313;49.894;8.084;2023-06-26T15:50:09;29.60;54.90
16408;DHT22;8313;49.894;8.084;2023-06-26T15:52:35;29.70;55.40
16408;DHT22;8313;49.894;8.084;2023-06-26T15:55:01;29.50;55.30
16408;DHT22;8313;49.894;8.084;2023-06-26T15:57:27;29.30;55.60
16408;DHT22;8313;49.894;8.084;2023-06-26T15:59:53;29.20;55.70